Time;durP1;ratioP1;P1;durP2;ratioP2;P2;SDS_P1;SDS_P2;PMS_P1;PMS_P2;Temp;Humidity;BMP_temperature;BMP_pressure;BME280_temperature;BME280_humidity;BME280_pressure;Samples;Min_cycle;Max_cycle;Signal;HPM_P1;HPM_P2
2022/07/05 00:02:00;;;;;;;6.35;5.68;;;21.40;82.40;;;;;;5055399;28;20017;-85
2022/07/05 00:04:25;;;;;;;6.97;5.60;;;21.40;83.50;;;;;;5073459;28;20378;-88
2022/07/05 00:09:36;;;;;;;6.65;6.03;;;21.20;88.90;;;;;;5073254;28;20067;-89
2022/07/05 00:12:03;;;;;;;6.18;5.22;;;21.20;89.50;;;;;;5054811;28;20060;-84
2022/07/05 00:14:30;;;;;;;6.18;5.68;;;21.20;88.60;;;;;;5055105;28;20029;-88
2022/07/05 00:16:55;;;;;;;6.22;5.68;;;21.30;85.00;;;;;;5054886;28;20052;-85
2022/07/05 00:19:21;;;;;;;6.07;5.50;;;21.30;84.70;;;;;;5072931;28;20028;-84
2022/07/05 00:21:47;;;;;;;6.25;5.57;;;21.40;82.70;;;;;;5055187;28;20024;-84
2022/07/05 00:24:13;;;;;;;5.95;5.38;;;21.40;82.70;;;;;;5055272;28;20085;-88
2022/07/05 00:26:39;;;;;;;5.78;5.25;;;21.50;83.10;;;;;;5054899;28;20025;-86
2022/07/05 00:29:05;;;;;;;6.32;5.18;;;21.50;82.20;;;;;;5055227;28;20021;-84
2022/07/05 00:31:31;;;;;;;5.30;4.90;;;21.60;81.30;;;;;;5055442;28;20066;-84
2022/07/05 00:33:57;;;;;;;6.65;4.90;;;21.60;78.70;;;;;;5072405;28;20043;-84
2022/07/05 00:36:22;;;;;;;5.05;4.68;;;21.60;78.30;;;;;;5072294;28;20012;-88
2022/07/05 00:38:48;;;;;;;6.30;5.15;;;21.60;78.90;;;;;;5054884;28;20497;-88
2022/07/05 00:41:14;;;;;;;5.35;4.95;;;21.60;81.20;;;;;;5054780;28;20020;-84
2022/07/05 00:44:10;;;;;;;6.13;5.57;;;21.60;82.80;;;;;;5073216;28;20027;-88
2022/07/05 00:46:37;;;;;;;6.47;5.72;;;21.50;87.20;;;;;;5041702;28;20118;-84
2022/07/05 00:49:04;;;;;;;6.18;5.25;;;21.50;86.10;;;;;;5073046;28;20032;-88
2022/07/05 00:51:32;;;;;;;7.63;5.85;;;21.50;86.80;;;;;;5054821;28;20028;-89
2022/07/05 00:54:00;;;;;;;6.05;5.45;;;21.50;85.00;;;;;;5054922;28;20395;-89
2022/07/05 00:56:26;;;;;;;5.00;4.60;;;21.40;82.90;;;;;;5054410;28;20028;-88
2022/07/05 00:58:52;;;;;;;5.45;4.82;;;21.40;82.00;;;;;;5054896;28;20043;-88
2022/07/05 01:01:19;;;;;;;8.27;4.78;;;21.40;83.90;;;;;;5073166;28;20047;-88
2022/07/05 01:03:45;;;;;;;5.50;5.10;;;21.30;86.70;;;;;;5054597;28;20028;-84
2022/07/05 01:06:13;;;;;;;6.43;5.82;;;21.30;88.70;;;;;;5090093;28;20546;-88
2022/07/05 01:08:41;;;;;;;5.85;5.35;;;21.20;92.10;;;;;;5075053;28;20066;-88
2022/07/05 01:11:09;;;;;;;6.95;6.38;;;21.10;94.70;;;;;;5074705;28;20385;-84
2022/07/05 01:13:36;;;;;;;6.88;6.20;;;21.10;96.90;;;;;;5074602;28;20028;-88
2022/07/05 01:16:02;;;;;;;6.60;5.72;;;21.00;99.60;;;;;;5074808;28;20500;-88
2022/07/05 01:18:28;;;;;;;6.60;5.80;;;20.90;99.90;;;;;;5092776;28;20023;-88
2022/07/05 01:20:55;;;;;;;8.07;7.32;;;20.90;99.90;;;;;;5074669;28;20035;-87
2022/07/05 01:23:22;;;;;;;8.57;7.68;;;20.80;99.90;;;;;;5092351;28;20032;-85
2022/07/05 01:25:48;;;;;;;8.25;7.45;;;20.70;99.90;;;;;;5092932;28;20029;-86
2022/07/05 01:28:15;;;;;;;9.80;7.88;;;20.60;99.90;;;;;;5092713;28;20028;-84
2022/07/05 01:30:42;;;;;;;8.65;7.85;;;20.60;99.90;;;;;;5092476;28;20062;-84
2022/07/05 01:33:09;;;;;;;10.05;8.05;;;20.60;99.90;;;;;;5066273;28;20025;-88
2022/07/05 01:35:36;;;;;;;9.40;8.48;;;20.60;99.90;;;;;;5034737;28;20025;-88
2022/07/05 01:38:03;;;;;;;8.88;8.10;;;20.60;99.90;;;;;;5034193;28;20025;-88
2022/07/05 01:40:29;;;;;;;8.57;7.78;;;20.50;99.90;;;;;;5034554;28;20494;-84
2022/07/05 01:42:54;;;;;;;9.50;8.57;;;20.40;99.90;;;;;;5052488;28;20029;-87
2022/07/05 01:45:39;;;;;;;6.60;6.07;;;20.40;99.90;;;;;;5034336;28;20035;-87
2022/07/05 01:48:08;;;;;;;8.13;6.63;;;20.30;99.90;;;;;;5033675;28;20475;-88
2022/07/05 01:50:57;;;;;;;6.82;6.22;;;20.10;99.90;;;;;;5034193;28;20132;-85
2022/07/05 01:53:33;;;;;;;7.28;6.63;;;20.10;99.90;;;;;;5034766;28;20025;-84
2022/07/05 01:56:03;;;;;;;8.00;6.38;;;20.20;99.90;;;;;;5052654;28;20021;-85
2022/07/05 01:58:31;;;;;;;6.82;6.32;;;20.20;99.90;;;;;;5036767;28;20048;-88
2022/07/05 02:00:58;;;;;;;7.43;6.57;;;20.30;99.90;;;;;;5056224;28;20021;-84
2022/07/05 02:03:25;;;;;;;9.13;7.18;;;20.30;99.90;;;;;;5055703;28;20083;-84
2022/07/05 02:05:52;;;;;;;7.72;6.85;;;20.30;99.90;;;;;;5069061;28;20036;-84
2022/07/05 02:08:20;;;;;;;8.10;7.30;;;20.40;99.90;;;;;;5077892;28;20362;-88
2022/07/05 02:10:46;;;;;;;8.13;7.32;;;20.40;99.90;;;;;;5095131;28;20052;-84
2022/07/05 02:13:12;;;;;;;8.18;7.38;;;20.40;99.90;;;;;;5077621;28;20040;-84
2022/07/05 02:15:39;;;;;;;7.68;6.90;;;20.30;99.90;;;;;;5077665;28;20016;-84
2022/07/05 02:18:06;;;;;;;7.63;6.93;;;20.20;99.90;;;;;;5077268;28;20030;-84
2022/07/05 02:20:33;;;;;;;8.80;7.55;;;20.30;99.90;;;;;;5095830;28;20024;-88
2022/07/05 02:22:59;;;;;;;7.53;6.90;;;20.20;99.90;;;;;;5095791;28;20024;-88
2022/07/05 02:25:25;;;;;;;7.78;7.18;;;20.20;99.90;;;;;;5096247;28;20066;-88
2022/07/05 02:27:54;;;;;;;8.07;7.35;;;20.20;99.90;;;;;;5095274;28;20028;-87
2022/07/05 02:30:20;;;;;;;7.97;7.35;;;20.20;99.90;;;;;;5095085;28;20488;-88
2022/07/05 02:32:46;;;;;;;7.18;6.47;;;20.20;99.90;;;;;;5075467;28;20036;-85
2022/07/05 02:35:12;;;;;;;7.50;6.65;;;20.20;99.90;;;;;;5057101;28;20438;-84
2022/07/05 02:37:41;;;;;;;8.60;7.90;;;20.20;99.90;;;;;;5056601;28;20025;-88
2022/07/05 02:40:13;;;;;;;8.85;8.05;;;20.20;99.90;;;;;;5075432;28;20075;-84
2022/07/05 02:42:40;;;;;;;8.02;7.43;;;20.10;99.90;;;;;;5056988;28;20031;-84
2022/07/05 02:45:06;;;;;;;7.38;6.68;;;20.10;99.90;;;;;;5056779;28;20028;-84
2022/07/05 02:47:33;;;;;;;7.43;6.72;;;20.10;99.90;;;;;;5057112;28;20443;-88
2022/07/05 02:50:03;;;;;;;8.52;7.70;;;20.10;99.90;;;;;;5056567;28;20021;-84
2022/07/05 02:52:29;;;;;;;7.75;7.05;;;20.10;99.90;;;;;;5056717;28;20097;-89
2022/07/05 02:54:55;;;;;;;6.82;6.20;;;20.10;99.90;;;;;;5056900;28;20025;-84
2022/07/05 02:57:21;;;;;;;7.30;6.55;;;20.10;99.90;;;;;;5074663;28;20033;-84
2022/07/05 02:59:47;;;;;;;6.45;5.78;;;20.00;99.90;;;;;;5056742;28;20073;-88
2022/07/05 03:02:12;;;;;;;6.97;6.38;;;19.90;99.90;;;;;;5074665;28;20385;-83
2022/07/05 03:04:38;;;;;;;7.00;6.30;;;19.80;99.90;;;;;;5080349;28;20051;-87
2022/07/05 03:07:04;;;;;;;6.90;6.40;;;19.90;99.90;;;;;;5094765;28;20024;-84
2022/07/05 03:09:30;;;;;;;6.38;5.88;;;19.90;99.90;;;;;;5075689;28;20048;-84
2022/07/05 03:11:56;;;;;;;6.97;6.38;;;19.90;99.90;;;;;;5076579;28;20099;-87
2022/07/05 03:14:22;;;;;;;7.28;6.63;;;20.00;99.90;;;;;;5076529;28;20539;-84
2022/07/05 03:16:48;;;;;;;8.70;7.05;;;19.90;99.90;;;;;;5059606;28;20024;-84
2022/07/05 03:19:13;;;;;;;7.00;6.32;;;20.00;99.90;;;;;;5075806;28;20024;-84
2022/07/05 03:21:39;;;;;;;7.03;6.43;;;20.00;99.90;;;;;;5076637;28;20024;-86
2022/07/05 03:24:05;;;;;;;7.00;6.30;;;20.00;99.90;;;;;;5076293;28;20603;-84
2022/07/05 03:26:31;;;;;;;7.28;6.57;;;20.00;99.90;;;;;;5076348;28;20030;-89
2022/07/05 03:28:58;;;;;;;8.15;7.10;;;20.00;99.90;;;;;;5094094;28;20024;-88
2022/07/05 03:31:23;;;;;;;7.40;6.70;;;20.10;99.90;;;;;;5076024;28;20051;-88
2022/07/05 03:33:49;;;;;;;6.70;6.03;;;20.00;99.90;;;;;;5082939;28;20450;-89
2022/07/05 03:36:15;;;;;;;7.63;7.03;;;20.00;99.90;;;;;;5055986;28;20021;-84
2022/07/05 03:38:41;;;;;;;6.85;6.25;;;20.10;99.90;;;;;;5055610;28;20105;-89
2022/07/05 03:41:07;;;;;;;14.10;6.35;;;20.10;99.90;;;;;;5074109;28;20028;-84
2022/07/05 03:43:33;;;;;;;7.07;6.45;;;20.10;99.90;;;;;;5073595;28;20027;-88
2022/07/05 03:45:58;;;;;;;8.23;6.68;;;20.20;99.90;;;;;;5056083;28;20016;-89
2022/07/05 03:48:24;;;;;;;6.07;5.57;;;20.20;99.90;;;;;;5055630;28;20020;-84
2022/07/05 03:50:50;;;;;;;6.93;6.32;;;20.20;99.90;;;;;;5039080;28;20028;-89
2022/07/05 03:53:16;;;;;;;7.35;6.65;;;20.20;99.90;;;;;;5055465;28;20029;-88
2022/07/05 03:55:43;;;;;;;7.53;6.82;;;20.20;99.90;;;;;;5055584;28;20115;-84
2022/07/05 03:58:09;;;;;;;6.45;5.90;;;20.20;99.90;;;;;;5055721;28;20032;-84
2022/07/05 04:00:35;;;;;;;6.35;5.75;;;20.20;99.90;;;;;;5055542;28;20103;-84
2022/07/05 04:03:01;;;;;;;7.82;7.00;;;20.20;99.90;;;;;;5073524;28;20116;-85
2022/07/05 04:05:27;;;;;;;6.90;6.40;;;20.20;99.90;;;;;;5073656;28;20025;-88
2022/07/05 04:07:54;;;;;;;8.27;7.68;;;20.10;99.90;;;;;;5055799;28;20027;-84
2022/07/05 04:10:20;;;;;;;8.07;7.30;;;20.00;99.90;;;;;;5055379;28;20044;-84
2022/07/05 04:12:46;;;;;;;7.97;7.38;;;19.90;99.90;;;;;;5073249;28;20105;-87
2022/07/05 04:15:13;;;;;;;7.18;6.60;;;19.90;99.90;;;;;;5055517;28;20013;-89
2022/07/05 04:17:52;;;;;;;7.78;7.28;;;19.90;99.90;;;;;;5073113;28;20046;-88
2022/07/05 04:20:18;;;;;;;8.68;7.97;;;19.80;99.90;;;;;;5055560;28;20024;-86
2022/07/05 04:22:44;;;;;;;8.63;7.82;;;19.90;99.90;;;;;;5054876;28;20055;-84
2022/07/05 04:25:19;;;;;;;7.88;7.28;;;19.90;99.90;;;;;;5072948;28;20406;-84
2022/07/05 04:27:53;;;;;;;7.38;6.68;;;19.90;99.90;;;;;;5055326;28;20123;-84
2022/07/05 04:30:22;;;;;;;9.43;8.50;;;19.80;99.90;;;;;;5054814;28;20138;-84
2022/07/05 04:32:48;;;;;;;9.35;7.85;;;19.80;99.90;;;;;;5054831;28;20039;-84
2022/07/05 04:35:14;;;;;;;9.57;8.75;;;19.70;99.90;;;;;;5073103;28;20020;-84
2022/07/05 04:37:40;;;;;;;9.40;8.50;;;19.60;99.90;;;;;;5072847;28;20028;-88
2022/07/05 04:40:08;;;;;;;8.15;7.40;;;19.50;99.90;;;;;;5055474;28;20021;-87
2022/07/05 04:42:34;;;;;;;9.43;8.63;;;19.40;99.90;;;;;;5054689;28;20027;-88
2022/07/05 04:45:00;;;;;;;8.00;7.32;;;19.50;99.90;;;;;;5055160;28;20033;-84
2022/07/05 04:47:26;;;;;;;7.90;7.25;;;19.60;99.90;;;;;;5054853;28;20032;-87
2022/07/05 04:49:53;;;;;;;7.78;7.05;;;19.50;99.90;;;;;;5072911;28;20028;-84
2022/07/05 04:52:19;;;;;;;8.15;7.45;;;19.50;99.90;;;;;;5054717;28;20543;-87
2022/07/05 04:54:46;;;;;;;8.27;7.45;;;19.50;99.90;;;;;;5072545;28;20033;-84
2022/07/05 04:57:12;;;;;;;8.60;7.80;;;19.60;99.90;;;;;;5072723;28;20024;-87
2022/07/05 04:59:38;;;;;;;9.00;8.00;;;19.60;99.90;;;;;;5054844;28;20020;-87
2022/07/05 05:02:04;;;;;;;7.57;6.88;;;19.70;99.90;;;;;;5054471;28;20058;-86
2022/07/05 05:04:29;;;;;;;8.60;7.78;;;19.70;99.90;;;;;;5054774;28;20096;-84
2022/07/05 05:06:55;;;;;;;10.15;8.15;;;19.70;99.90;;;;;;5054495;28;20104;-85
2022/07/05 05:09:21;;;;;;;10.52;9.05;;;19.70;99.90;;;;;;5072228;28;20049;-87
2022/07/05 05:11:48;;;;;;;9.40;8.60;;;19.80;99.90;;;;;;5054601;28;20078;-86
2022/07/05 05:14:14;;;;;;;10.30;9.32;;;19.80;99.90;;;;;;5072382;28;20032;-87
2022/07/05 05:16:40;;;;;;;10.27;9.27;;;19.80;99.90;;;;;;5049163;28;20032;-87
2022/07/05 05:19:06;;;;;;;10.40;9.40;;;19.80;99.90;;;;;;5050756;28;20021;-87
2022/07/05 05:21:33;;;;;;;11.25;9.77;;;19.80;99.90;;;;;;5070235;28;20020;-87
2022/07/05 05:23:59;;;;;;;11.32;10.25;;;19.80;99.90;;;;;;5047911;28;20032;-86
2022/07/05 05:26:28;;;;;;;10.80;9.73;;;19.70;99.90;;;;;;5050673;28;20112;-87
2022/07/05 05:28:56;;;;;;;10.63;9.60;;;19.70;99.90;;;;;;5062979;28;20032;-87
2022/07/05 05:31:25;;;;;;;10.50;9.52;;;19.70;99.90;;;;;;5058375;28;20033;-84
2022/07/05 05:33:51;;;;;;;10.38;9.48;;;19.70;99.90;;;;;;5065428;28;20483;-84
2022/07/05 05:36:17;;;;;;;10.85;9.75;;;19.80;99.90;;;;;;5071291;28;20066;-87
2022/07/05 05:38:47;;;;;;;11.55;8.65;;;19.80;99.90;;;;;;5042674;28;20057;-87
2022/07/05 05:41:13;;;;;;;11.68;10.48;;;19.80;99.90;;;;;;5059611;28;20036;-84
2022/07/05 05:43:39;;;;;;;9.15;8.35;;;19.80;99.90;;;;;;5069342;28;20044;-84
2022/07/05 05:46:05;;;;;;;10.27;9.18;;;19.80;99.90;;;;;;5076220;28;20077;-86
2022/07/05 05:48:31;;;;;;;12.45;10.77;;;19.80;99.90;;;;;;5076888;28;20043;-84
2022/07/05 05:50:58;;;;;;;12.27;11.13;;;19.80;99.90;;;;;;5076275;28;20021;-86
2022/07/05 05:53:24;;;;;;;11.80;10.63;;;19.70;99.90;;;;;;5086905;28;20044;-82
2022/07/05 05:55:51;;;;;;;12.23;11.02;;;19.60;99.90;;;;;;5076878;28;20020;-84
2022/07/05 05:58:20;;;;;;;13.77;12.38;;;19.60;99.90;;;;;;5075535;28;20032;-84
2022/07/05 06:00:51;;;;;;;13.70;12.50;;;19.60;99.90;;;;;;5060632;28;20025;-84
2022/07/05 06:03:19;;;;;;;14.48;13.20;;;19.50;99.90;;;;;;5065108;28;20413;-87
2022/07/05 06:05:45;;;;;;;13.05;11.88;;;19.50;99.90;;;;;;5068927;28;20020;-84
2022/07/05 06:08:11;;;;;;;13.45;12.10;;;19.60;99.90;;;;;;5059649;28;20470;-87
2022/07/05 06:10:38;;;;;;;14.90;13.60;;;19.60;99.90;;;;;;5046534;28;20047;-84
2022/07/05 06:13:07;;;;;;;15.35;13.85;;;19.60;99.90;;;;;;5066173;28;20045;-83
2022/07/05 06:15:33;;;;;;;16.63;15.07;;;19.60;99.90;;;;;;5067430;28;20035;-87
2022/07/05 06:17:59;;;;;;;16.05;14.68;;;19.60;99.90;;;;;;5065298;28;20029;-83
2022/07/05 06:20:31;;;;;;;14.05;12.68;;;19.70;99.90;;;;;;5063969;28;20024;-87
2022/07/05 06:22:58;;;;;;;14.05;12.82;;;19.60;99.90;;;;;;5048154;28;20039;-87
2022/07/05 06:25:24;;;;;;;11.30;10.20;;;19.70;99.90;;;;;;5050377;28;20025;-87
2022/07/05 06:27:56;;;;;;;13.88;12.70;;;19.70;99.90;;;;;;5063557;28;20059;-86
2022/07/05 06:30:24;;;;;;;36.42;16.42;;;19.70;99.90;;;;;;5066060;28;20029;-86
2022/07/05 06:32:51;;;;;;;43.65;17.50;;;19.80;99.90;;;;;;5064657;28;20045;-82
2022/07/05 06:35:17;;;;;;;16.20;13.80;;;19.80;99.90;;;;;;5067185;28;20513;-83
2022/07/05 06:37:49;;;;;;;15.30;13.77;;;19.90;99.90;;;;;;5064840;28;20009;-82
2022/07/05 06:40:34;;;;;;;14.80;13.35;;;19.90;99.90;;;;;;5046765;28;20028;-86
2022/07/05 06:43:03;;;;;;;15.05;12.90;;;19.90;99.90;;;;;;5048184;28;20086;-86
2022/07/05 06:45:29;;;;;;;15.43;13.93;;;19.90;99.90;;;;;;5049255;28;20024;-83
2022/07/05 06:48:00;;;;;;;15.40;13.82;;;20.00;99.90;;;;;;5066950;28;20560;-87
2022/07/05 06:50:27;;;;;;;16.05;14.65;;;20.00;99.90;;;;;;5071230;28;20058;-87
2022/07/05 06:52:54;;;;;;;15.18;13.68;;;20.00;99.90;;;;;;5061391;28;20055;-83
2022/07/05 06:55:20;;;;;;;15.85;14.15;;;19.90;99.90;;;;;;5083259;28;20740;-83
2022/07/05 06:57:47;;;;;;;16.48;14.80;;;19.80;99.90;;;;;;5072328;28;20095;-83
2022/07/05 07:00:13;;;;;;;19.88;16.15;;;19.80;99.90;;;;;;5085418;28;20047;-86
2022/07/05 07:02:39;;;;;;;15.77;13.55;;;19.80;99.90;;;;;;5067399;28;20116;-85
2022/07/05 07:05:06;;;;;;;18.58;15.82;;;19.80;99.90;;;;;;5087462;28;20070;-86
2022/07/05 07:10:16;;;;;;;15.93;14.32;;;19.80;99.90;;;;;;5075025;28;20060;-86
2022/07/05 07:12:42;;;;;;;15.57;13.98;;;19.70;99.90;;;;;;5084963;28;20032;-83
2022/07/05 07:15:08;;;;;;;19.92;16.02;;;19.70;99.90;;;;;;5074294;28;20138;-86
2022/07/05 07:17:34;;;;;;;17.05;15.27;;;19.70;99.90;;;;;;5057769;28;20039;-83
2022/07/05 07:20:00;;;;;;;18.77;15.52;;;19.70;99.90;;;;;;5055700;28;20033;-86
2022/07/05 07:22:26;;;;;;;18.40;16.60;;;19.70;99.90;;;;;;5084766;28;20032;-86
2022/07/05 07:24:53;;;;;;;17.00;14.52;;;19.70;99.90;;;;;;5074188;28;20042;-86
2022/07/05 07:27:19;;;;;;;14.13;12.57;;;19.60;99.90;;;;;;5069243;28;20449;-86
2022/07/05 07:29:45;;;;;;;14.05;12.63;;;19.60;99.90;;;;;;5074592;28;20093;-82
2022/07/05 07:32:11;;;;;;;15.48;13.88;;;19.50;99.90;;;;;;5056929;28;20032;-86
2022/07/05 07:34:37;;;;;;;11.85;10.40;;;19.50;99.90;;;;;;5089935;28;20489;-83
2022/07/05 07:37:04;;;;;;;12.40;11.15;;;19.40;99.90;;;;;;5092391;28;20027;-83
2022/07/05 07:39:33;;;;;;;12.18;11.07;;;19.40;99.90;;;;;;5091771;28;20040;-84
2022/07/05 07:41:59;;;;;;;11.63;10.43;;;19.40;99.90;;;;;;5074487;28;20024;-83
2022/07/05 07:44:25;;;;;;;10.57;9.30;;;19.30;99.90;;;;;;5092288;28;20047;-86
2022/07/05 07:46:51;;;;;;;12.77;10.95;;;19.20;99.90;;;;;;5074337;28;20058;-82
2022/07/05 07:49:17;;;;;;;12.23;10.90;;;19.20;99.90;;;;;;5091979;28;20032;-82
2022/07/05 07:51:43;;;;;;;10.65;9.50;;;19.20;99.90;;;;;;5092929;28;20103;-82
2022/07/05 07:54:10;;;;;;;10.75;9.68;;;19.20;99.90;;;;;;5073224;28;20123;-83
2022/07/05 07:56:36;;;;;;;10.57;9.57;;;19.20;99.90;;;;;;5092002;28;20020;-85
2022/07/05 07:59:02;;;;;;;10.95;9.82;;;19.20;99.90;;;;;;5091317;28;20035;-82
2022/07/05 08:01:27;;;;;;;10.38;9.48;;;19.10;99.90;;;;;;5092097;28;20104;-83
2022/07/05 08:03:53;;;;;;;11.18;10.07;;;19.10;99.90;;;;;;5045107;28;20090;-84
2022/07/05 08:06:19;;;;;;;10.43;9.35;;;19.10;99.90;;;;;;5067097;28;20082;-83
2022/07/05 08:08:45;;;;;;;11.55;10.50;;;19.20;99.90;;;;;;5086200;28;20028;-85
2022/07/05 08:11:12;;;;;;;12.70;11.43;;;19.20;99.90;;;;;;5084176;28;20035;-82
2022/07/05 08:13:40;;;;;;;11.75;10.60;;;19.20;99.90;;;;;;5074349;28;20032;-85
2022/07/05 08:16:06;;;;;;;11.88;10.73;;;19.20;99.90;;;;;;5071168;28;20035;-82
2022/07/05 08:21:32;;;;;;;14.63;11.93;;;19.20;99.90;;;;;;5087803;28;20030;-85
2022/07/05 08:23:59;;;;;;;12.68;11.48;;;19.20;99.90;;;;;;5091496;28;20020;-82
2022/07/05 08:26:25;;;;;;;12.38;10.90;;;19.20;99.90;;;;;;5086758;28;20020;-85
2022/07/05 08:28:51;;;;;;;12.10;10.52;;;19.20;99.90;;;;;;5092125;28;20024;-86
2022/07/05 08:31:17;;;;;;;11.52;10.13;;;19.30;99.90;;;;;;5072324;28;20040;-87
2022/07/05 08:33:43;;;;;;;11.65;10.55;;;19.30;99.90;;;;;;5044471;28;20059;-86
2022/07/05 08:36:09;;;;;;;13.77;11.95;;;19.50;99.90;;;;;;5064119;28;20054;-87
2022/07/05 08:38:35;;;;;;;12.52;11.43;;;19.50;99.90;;;;;;5064511;28;20095;-88
2022/07/05 08:41:02;;;;;;;12.23;11.00;;;19.50;99.90;;;;;;5047884;28;20119;-87
2022/07/05 08:43:29;;;;;;;13.77;12.38;;;19.50;99.90;;;;;;5061459;28;20031;-86
2022/07/05 08:45:58;;;;;;;12.45;11.25;;;19.50;99.90;;;;;;5065513;28;20033;-87
2022/07/05 08:48:24;;;;;;;13.10;11.55;;;19.50;99.90;;;;;;5063568;28;20099;-83
2022/07/05 08:50:52;;;;;;;11.60;10.43;;;19.60;99.90;;;;;;5046418;28;20036;-87
2022/07/05 08:53:19;;;;;;;12.80;11.48;;;19.60;99.90;;;;;;5059073;28;20441;-88
2022/07/05 08:55:45;;;;;;;14.20;11.63;;;19.60;99.90;;;;;;5050043;28;20029;-83
2022/07/05 08:58:11;;;;;;;12.07;10.85;;;19.60;99.90;;;;;;5049195;28;20024;-88
2022/07/05 09:00:39;;;;;;;12.63;11.38;;;19.60;99.90;;;;;;5043689;28;20044;-88
2022/07/05 09:03:06;;;;;;;18.30;11.32;;;19.60;99.90;;;;;;5049246;28;20463;-83
2022/07/05 09:05:43;;;;;;;14.40;12.50;;;19.50;99.90;;;;;;5060819;28;20039;-82
2022/07/05 09:08:12;;;;;;;12.75;11.60;;;19.50;99.90;;;;;;5075305;28;20028;-83
2022/07/05 09:10:42;;;;;;;12.48;11.38;;;19.60;99.90;;;;;;5076959;28;20044;-83
2022/07/05 09:13:08;;;;;;;12.88;11.60;;;19.70;99.90;;;;;;5076883;28;20050;-82
2022/07/05 09:15:37;;;;;;;12.85;11.55;;;19.60;99.90;;;;;;5094907;28;20040;-87
2022/07/05 09:18:03;;;;;;;13.68;12.43;;;19.70;99.90;;;;;;5091955;28;20020;-88
2022/07/05 09:20:31;;;;;;;11.18;10.10;;;19.70;99.90;;;;;;5085004;28;20051;-83
2022/07/05 09:22:57;;;;;;;12.93;11.05;;;19.80;99.90;;;;;;5077510;28;20020;-83
2022/07/05 09:25:27;;;;;;;13.75;12.23;;;19.90;99.90;;;;;;5063627;28;20099;-83
2022/07/05 09:27:59;;;;;;;12.23;11.00;;;19.90;99.90;;;;;;5053012;28;20024;-83
2022/07/05 09:30:39;;;;;;;13.70;11.68;;;19.90;99.90;;;;;;5050001;28;20032;-87
2022/07/05 09:33:12;;;;;;;12.07;10.88;;;20.00;99.90;;;;;;5057965;28;20618;-87
2022/07/05 09:35:39;;;;;;;12.18;10.57;;;20.00;99.90;;;;;;5067788;28;20491;-83
2022/07/05 09:38:15;;;;;;;17.33;11.70;;;20.00;99.90;;;;;;5048642;28;20482;-83
2022/07/05 09:40:54;;;;;;;11.80;10.43;;;20.10;99.90;;;;;;5070229;28;20363;-86
2022/07/05 09:43:25;;;;;;;11.85;10.75;;;20.10;99.90;;;;;;5068813;28;20434;-83
2022/07/05 09:46:04;;;;;;;11.82;10.35;;;20.10;99.90;;;;;;5062639;28;20121;-82
2022/07/05 09:48:32;;;;;;;12.25;11.05;;;20.10;99.90;;;;;;5070945;28;20027;-86
2022/07/05 09:51:15;;;;;;;11.30;10.13;;;20.10;99.90;;;;;;5076869;28;20035;-82
2022/07/05 09:54:00;;;;;;;9.88;8.68;;;20.00;99.90;;;;;;5095054;28;20036;-85
2022/07/05 09:56:29;;;;;;;13.27;7.65;;;20.00;99.90;;;;;;5075581;28;20039;-86
2022/07/05 09:58:55;;;;;;;8.75;7.93;;;20.00;99.90;;;;;;5062441;28;20021;-83
2022/07/05 10:01:25;;;;;;;9.40;8.30;;;20.00;99.90;;;;;;5075514;28;20072;-85
2022/07/05 10:03:56;;;;;;;9.75;8.77;;;20.00;99.90;;;;;;5079748;28;20055;-83
2022/07/05 10:06:23;;;;;;;9.60;8.23;;;20.00;99.90;;;;;;5069640;28;20039;-82
2022/07/05 10:08:49;;;;;;;10.88;9.77;;;19.90;99.90;;;;;;5076232;28;20487;-83
2022/07/05 10:11:19;;;;;;;10.20;8.73;;;19.90;99.90;;;;;;5075552;28;20032;-86
2022/07/05 10:13:49;;;;;;;8.68;7.68;;;20.00;99.90;;;;;;5050072;28;20042;-85
2022/07/05 10:16:19;;;;;;;9.02;7.82;;;19.90;99.90;;;;;;5092756;28;20093;-84
2022/07/05 10:18:53;;;;;;;9.07;8.20;;;20.00;99.90;;;;;;5063572;28;20024;-84
2022/07/05 10:21:19;;;;;;;8.35;7.22;;;20.00;99.90;;;;;;5072118;28;20035;-84
2022/07/05 10:23:48;;;;;;;8.40;7.63;;;20.00;99.90;;;;;;5094437;28;20035;-84
2022/07/05 10:26:18;;;;;;;8.43;7.57;;;20.00;99.90;;;;;;5067996;28;20071;-85
2022/07/05 10:28:48;;;;;;;7.97;7.25;;;19.90;99.90;;;;;;5073564;28;20029;-84
2022/07/05 10:31:17;;;;;;;7.78;7.00;;;19.80;99.90;;;;;;5053452;28;20550;-84
2022/07/05 10:33:44;;;;;;;8.00;7.30;;;19.80;99.90;;;;;;5059332;28;20574;-84
2022/07/05 10:36:11;;;;;;;8.02;7.22;;;19.80;99.90;;;;;;5093356;28;20036;-83
2022/07/05 10:38:43;;;;;;;7.93;7.20;;;19.70;99.90;;;;;;5076180;28;20012;-84
2022/07/05 10:41:14;;;;;;;9.65;8.65;;;19.70;99.90;;;;;;5074412;28;20485;-83
2022/07/05 10:43:39;;;;;;;8.77;7.95;;;19.70;99.90;;;;;;5075931;28;20378;-86
2022/07/05 10:46:07;;;;;;;8.90;8.00;;;19.70;99.90;;;;;;5092986;28;20036;-86
2022/07/05 10:48:34;;;;;;;8.15;7.20;;;19.70;99.90;;;;;;5067733;28;20021;-83
2022/07/05 10:51:15;;;;;;;8.77;7.25;;;19.70;99.90;;;;;;5061458;28;20038;-83
2022/07/05 10:53:40;;;;;;;7.57;6.47;;;19.60;99.90;;;;;;5080464;28;20070;-83
2022/07/05 10:56:06;;;;;;;6.32;5.80;;;19.60;99.90;;;;;;5068072;28;20040;-86
2022/07/05 10:58:33;;;;;;;6.53;5.93;;;19.60;99.90;;;;;;5047471;28;20017;-87
2022/07/05 11:01:20;;;;;;;8.75;6.63;;;19.50;99.90;;;;;;5070200;28;20116;-84
2022/07/05 11:04:18;;;;;;;6.65;6.15;;;19.50;99.90;;;;;;5054872;28;20028;-82
2022/07/05 11:06:46;;;;;;;6.90;6.15;;;19.40;99.90;;;;;;5071140;28;20037;-84
2022/07/05 11:09:11;;;;;;;6.63;5.78;;;19.30;99.90;;;;;;5047430;28;20447;-83
2022/07/05 11:11:42;;;;;;;6.22;5.63;;;19.20;99.90;;;;;;5062563;28;20119;-83
2022/07/05 11:14:20;;;;;;;8.52;6.88;;;19.20;99.90;;;;;;5049854;28;20076;-86
2022/07/05 11:16:47;;;;;;;6.70;6.10;;;19.20;99.90;;;;;;5046175;28;20033;-87
2022/07/05 11:19:20;;;;;;;7.32;6.72;;;19.30;99.90;;;;;;5060739;28;20025;-83
2022/07/05 11:22:05;;;;;;;7.72;6.40;;;19.30;99.90;;;;;;5043106;28;20087;-86
2022/07/05 11:24:36;;;;;;;7.20;5.93;;;19.30;99.90;;;;;;5068931;28;20066;-84
2022/07/05 11:27:08;;;;;;;8.02;6.18;;;19.40;99.90;;;;;;5067963;28;20066;-83
2022/07/05 11:29:48;;;;;;;6.40;5.90;;;19.30;99.90;;;;;;5063063;28;20091;-86
2022/07/05 11:32:16;;;;;;;7.40;6.25;;;19.30;99.90;;;;;;5054970;28;20089;-87
2022/07/05 11:34:45;;;;;;;7.72;5.72;;;19.20;99.90;;;;;;5068360;28;20097;-86
2022/07/05 11:37:18;;;;;;;6.93;6.22;;;19.20;99.90;;;;;;5074896;28;20491;-86
2022/07/05 11:39:45;;;;;;;5.65;5.25;;;19.20;99.90;;;;;;5079746;28;20049;-85
2022/07/05 11:42:21;;;;;;;6.10;5.53;;;19.10;99.90;;;;;;5054953;28;20044;-86
2022/07/05 11:44:52;;;;;;;6.75;6.15;;;19.20;99.90;;;;;;5066819;28;20028;-84
2022/07/05 11:47:19;;;;;;;6.90;6.20;;;19.20;99.90;;;;;;5044538;28;20154;-85
2022/07/05 11:50:00;;;;;;;6.68;6.07;;;19.20;99.90;;;;;;5064942;28;20025;-86
2022/07/05 11:52:34;;;;;;;5.93;5.43;;;19.20;99.90;;;;;;5059601;28;20033;-86
2022/07/05 11:55:05;;;;;;;5.80;5.10;;;19.20;99.90;;;;;;5066598;28;20131;-85
2022/07/05 11:57:32;;;;;;;6.97;6.35;;;19.20;99.90;;;;;;5065574;28;20044;-84
2022/07/05 11:59:58;;;;;;;6.03;5.50;;;19.30;99.90;;;;;;5059803;28;20029;-84
2022/07/05 12:02:24;;;;;;;5.78;5.28;;;19.20;99.90;;;;;;5025447;28;20044;-87
2022/07/05 12:04:51;;;;;;;9.75;6.10;;;19.30;99.90;;;;;;5067740;28;20028;-87
2022/07/05 12:07:35;;;;;;;7.07;6.35;;;19.30;99.90;;;;;;5053585;28;20159;-87
2022/07/05 12:12:51;;;;;;;7.95;5.65;;;19.20;99.90;;;;;;5055192;28;20043;-83
2022/07/05 12:15:20;;;;;;;6.63;5.78;;;19.10;99.90;;;;;;5043467;28;20162;-87
2022/07/05 12:17:48;;;;;;;6.47;5.13;;;19.20;99.90;;;;;;5068396;28;20029;-84
2022/07/05 12:20:20;;;;;;;6.68;6.07;;;19.10;99.90;;;;;;5080535;28;20032;-85
2022/07/05 12:22:46;;;;;;;6.63;5.95;;;19.20;99.90;;;;;;5075579;28;20040;-87
2022/07/05 12:25:15;;;;;;;5.30;4.85;;;19.10;99.90;;;;;;5068909;28;20024;-86
2022/07/05 12:27:47;;;;;;;5.05;4.60;;;19.10;99.90;;;;;;5057150;28;20036;-84
2022/07/05 12:30:16;;;;;;;4.68;4.25;;;19.10;99.90;;;;;;5042401;28;20048;-84
2022/07/05 12:33:12;;;;;;;5.50;5.00;;;19.00;99.90;;;;;;5045858;28;20111;-84
2022/07/05 12:35:47;;;;;;;5.75;5.30;;;19.10;99.90;;;;;;5051140;28;20108;-86
2022/07/05 12:38:18;;;;;;;7.07;5.95;;;18.90;99.90;;;;;;5059409;28;20036;-85
2022/07/05 12:40:57;;;;;;;7.17;5.73;;;19.00;99.90;;;;;;5048695;28;20396;-86
2022/07/05 12:43:23;;;;;;;6.38;5.88;;;19.00;99.90;;;;;;5058266;28;20406;-87
2022/07/05 12:46:03;;;;;;;6.50;5.90;;;19.10;99.90;;;;;;5047543;28;20023;-84
2022/07/05 12:48:34;;;;;;;7.10;6.40;;;19.20;99.90;;;;;;5057843;28;20041;-85
2022/07/05 12:51:03;;;;;;;7.57;6.88;;;19.20;99.90;;;;;;5047070;28;20017;-85
2022/07/05 12:59:10;;;;;;;7.47;6.72;;;19.40;99.90;;;;;;5060318;28;20081;-84
2022/07/05 13:01:43;;;;;;;7.97;7.18;;;19.70;99.90;;;;;;5046365;28;20502;-86
2022/07/05 13:04:16;;;;;;;7.40;6.82;;;19.70;99.90;;;;;;5058133;28;20040;-84